Time;durP1;ratioP1;P1;durP2;ratioP2;P2;SDS_P1;SDS_P2;PMS_P1;PMS_P2;Temp;Humidity;BMP_temperature;BMP_pressure;BME280_temperature;BME280_humidity;BME280_pressure;Samples;Min_cycle;Max_cycle;Signal;HPM_P1;HPM_P2
2022/03/31 00:02:09;;;;;;;7.80;2.85;;;7.80;82.60;;;;;;4991235;28;20046;-75
2022/03/31 00:04:36;;;;;;;7.15;2.80;;;7.80;82.60;;;;;;4991319;28;20014;-77
2022/03/31 00:07:02;;;;;;;14.35;2.95;;;7.70;82.70;;;;;;4990743;28;20444;-75
2022/03/31 00:09:27;;;;;;;13.25;3.83;;;7.70;82.70;;;;;;4991324;28;20057;-77
2022/03/31 00:11:53;;;;;;;7.25;2.65;;;7.70;82.60;;;;;;4973876;28;20113;-76
2022/03/31 00:14:18;;;;;;;8.02;2.90;;;7.70;82.90;;;;;;4991132;28;20077;-77
2022/03/31 00:16:44;;;;;;;6.93;2.90;;;7.70;82.70;;;;;;4991122;28;20026;-76
2022/03/31 00:19:09;;;;;;;13.02;3.20;;;7.60;82.80;;;;;;4974403;28;20455;-75
2022/03/31 00:21:35;;;;;;;8.43;3.35;;;7.60;82.80;;;;;;4991246;28;20122;-76
2022/03/31 00:24:01;;;;;;;8.07;3.38;;;7.60;83.00;;;;;;4991081;28;20073;-77
2022/03/31 00:26:26;;;;;;;9.90;3.17;;;7.50;82.90;;;;;;4991150;28;20037;-75
2022/03/31 00:28:52;;;;;;;8.98;3.53;;;7.50;82.80;;;;;;4989814;28;20238;-75
2022/03/31 00:31:18;;;;;;;17.88;3.70;;;7.60;82.40;;;;;;4991421;28;20037;-75
2022/03/31 00:33:44;;;;;;;17.48;3.15;;;7.70;82.30;;;;;;4990991;28;20444;-77
2022/03/31 00:36:12;;;;;;;13.90;3.28;;;7.70;81.90;;;;;;4990879;28;20049;-76
2022/03/31 00:38:37;;;;;;;6.65;3.05;;;7.70;81.70;;;;;;4989934;28;20023;-77
2022/03/31 00:41:05;;;;;;;11.43;2.97;;;7.80;81.50;;;;;;4991049;28;20126;-76
2022/03/31 00:43:31;;;;;;;12.82;3.45;;;7.70;81.40;;;;;;4991421;28;20034;-77
2022/03/31 00:45:58;;;;;;;4.78;2.60;;;7.70;81.30;;;;;;4990944;28;20031;-75
2022/03/31 00:48:24;;;;;;;7.27;3.27;;;7.80;81.20;;;;;;4989840;28;20110;-76
2022/03/31 00:50:50;;;;;;;8.18;3.13;;;7.70;81.00;;;;;;4990836;28;20910;-76
2022/03/31 00:53:17;;;;;;;6.90;3.22;;;7.80;81.00;;;;;;4990881;28;20360;-76
2022/03/31 00:55:44;;;;;;;10.85;2.70;;;7.80;80.70;;;;;;4990834;28;20023;-76
2022/03/31 00:58:11;;;;;;;8.07;3.15;;;7.90;80.60;;;;;;4991364;28;20100;-76
2022/03/31 01:00:36;;;;;;;10.57;2.63;;;7.90;80.40;;;;;;4990777;28;20031;-78
2022/03/31 01:03:03;;;;;;;7.25;3.58;;;7.90;80.30;;;;;;4992001;28;20499;-78
2022/03/31 01:05:29;;;;;;;8.45;2.80;;;7.90;80.10;;;;;;4994367;28;20038;-78
2022/03/31 01:07:55;;;;;;;7.28;3.22;;;7.90;80.10;;;;;;4994509;28;20032;-78
2022/03/31 01:10:21;;;;;;;14.00;3.85;;;7.90;80.10;;;;;;4994682;28;20037;-76
2022/03/31 01:12:47;;;;;;;7.78;3.60;;;7.80;80.00;;;;;;4994441;28;20026;-77
2022/03/31 01:15:15;;;;;;;10.13;3.40;;;7.80;80.00;;;;;;4994381;28;20110;-76
2022/03/31 01:17:43;;;;;;;9.73;3.10;;;7.70;80.10;;;;;;4977102;28;20046;-76
2022/03/31 01:20:11;;;;;;;16.40;3.80;;;7.60;80.40;;;;;;4993265;28;20084;-78
2022/03/31 01:22:37;;;;;;;;;;;7.60;80.90;;;;;;4994778;28;20030;-76
2022/03/31 01:25:06;;;;;;;11.27;3.50;;;7.60;80.80;;;;;;4993717;28;19906;-77
2022/03/31 01:27:34;;;;;;;11.50;3.85;;;7.70;80.60;;;;;;4994803;28;20031;-75
2022/03/31 01:30:00;;;;;;;7.22;3.42;;;7.70;80.40;;;;;;4994193;28;20030;-76
2022/03/31 01:32:25;;;;;;;11.07;3.45;;;7.70;80.40;;;;;;4993339;28;20030;-76
2022/03/31 01:34:51;;;;;;;17.00;3.63;;;7.70;80.50;;;;;;4994571;28;20049;-76
2022/03/31 01:37:16;;;;;;;16.20;4.03;;;7.70;80.50;;;;;;5034075;28;20371;-75
2022/03/31 01:39:43;;;;;;;11.07;4.45;;;7.70;80.40;;;;;;5016195;28;20525;-78
2022/03/31 01:42:09;;;;;;;11.27;3.58;;;7.60;80.50;;;;;;5033866;28;20030;-76
2022/03/31 01:44:35;;;;;;;10.30;3.67;;;7.60;80.50;;;;;;5033888;28;20124;-77
2022/03/31 01:47:01;;;;;;;9.18;3.42;;;7.50;80.60;;;;;;5033648;28;20049;-77
2022/03/31 01:49:26;;;;;;;8.85;3.72;;;7.60;80.70;;;;;;5034051;28;20060;-76
2022/03/31 01:51:53;;;;;;;10.85;4.95;;;7.60;80.60;;;;;;5033950;28;20036;-75
2022/03/31 01:54:19;;;;;;;13.82;3.88;;;7.60;80.70;;;;;;5034218;28;20034;-76
2022/03/31 01:56:45;;;;;;;9.95;3.92;;;7.60;80.70;;;;;;5033725;28;20047;-76
2022/03/31 01:59:11;;;;;;;8.45;3.35;;;7.40;81.10;;;;;;5033102;28;20032;-77
2022/03/31 02:01:37;;;;;;;13.82;3.55;;;7.40;81.20;;;;;;5033106;28;20079;-76
2022/03/31 02:04:03;;;;;;;11.05;4.18;;;7.30;81.80;;;;;;5015945;28;20057;-75
2022/03/31 02:06:29;;;;;;;7.40;3.40;;;7.20;81.90;;;;;;5032966;28;20026;-75
2022/03/31 02:08:56;;;;;;;8.35;4.05;;;7.20;82.40;;;;;;5032795;28;20057;-76
2022/03/31 02:11:22;;;;;;;9.27;3.95;;;7.30;81.80;;;;;;5032752;28;20040;-75
2022/03/31 02:13:47;;;;;;;14.82;4.40;;;7.30;81.90;;;;;;5032324;28;20108;-75
2022/03/31 02:16:14;;;;;;;11.10;4.00;;;7.40;82.00;;;;;;5032591;28;20097;-76
2022/03/31 02:18:40;;;;;;;9.68;3.78;;;7.40;81.90;;;;;;5032567;28;20079;-75
2022/03/31 02:21:05;;;;;;;11.13;4.30;;;7.40;82.00;;;;;;5032533;28;20029;-75
2022/03/31 02:23:31;;;;;;;13.23;4.45;;;7.30;82.50;;;;;;5015007;28;20022;-78
2022/03/31 02:25:58;;;;;;;17.65;4.32;;;7.30;82.50;;;;;;5032286;28;20094;-76
2022/03/31 02:28:24;;;;;;;13.80;4.40;;;7.20;82.60;;;;;;5033114;28;20025;-75
2022/03/31 02:30:49;;;;;;;17.67;4.70;;;7.20;82.90;;;;;;5032272;28;20038;-76
2022/03/31 02:33:15;;;;;;;14.18;4.57;;;7.00;83.40;;;;;;5032199;28;20105;-75
2022/03/31 02:35:41;;;;;;;8.18;4.32;;;7.10;83.90;;;;;;5032091;28;20038;-75
2022/03/31 02:38:06;;;;;;;10.38;4.47;;;7.20;84.00;;;;;;5014509;28;20042;-76
2022/03/31 02:40:32;;;;;;;13.55;4.45;;;7.20;83.60;;;;;;5032590;28;20032;-75
2022/03/31 02:42:58;;;;;;;11.70;5.00;;;7.20;83.70;;;;;;5014534;28;20089;-75
2022/03/31 02:45:24;;;;;;;13.38;4.78;;;7.20;83.70;;;;;;5031966;28;20029;-75
2022/03/31 02:47:49;;;;;;;15.60;5.13;;;7.20;84.20;;;;;;5014503;28;20093;-76
2022/03/31 02:50:17;;;;;;;10.70;5.30;;;7.30;84.30;;;;;;5031760;28;20033;-74
2022/03/31 02:55:28;;;;;;;16.80;6.18;;;7.00;85.40;;;;;;5032480;28;20032;-75
2022/03/31 02:57:55;;;;;;;16.63;6.43;;;7.00;86.50;;;;;;5031963;28;20041;-76
2022/03/31 03:00:22;;;;;;;13.75;6.05;;;7.00;87.10;;;;;;5031765;28;20362;-75
2022/03/31 03:02:48;;;;;;;19.05;6.38;;;6.90;87.40;;;;;;5031518;28;20516;-75
2022/03/31 03:05:14;;;;;;;17.05;6.70;;;7.00;88.00;;;;;;5031920;28;20033;-75
2022/03/31 03:07:39;;;;;;;16.02;6.38;;;7.10;88.10;;;;;;5031492;28;20645;-74
2022/03/31 03:10:05;;;;;;;15.27;7.18;;;6.90;88.60;;;;;;5031849;28;20105;-74
2022/03/31 03:12:31;;;;;;;16.45;6.45;;;6.80;89.60;;;;;;5031539;28;20514;-74
2022/03/31 03:14:57;;;;;;;14.75;7.68;;;6.90;89.50;;;;;;5031330;28;20486;-75
2022/03/31 03:17:23;;;;;;;18.63;7.88;;;6.90;90.00;;;;;;5031408;28;20017;-75
2022/03/31 03:19:48;;;;;;;18.98;7.38;;;6.90;90.10;;;;;;5013857;28;20121;-74
2022/03/31 03:22:14;;;;;;;15.73;6.85;;;6.80;90.30;;;;;;5031708;28;20029;-75
2022/03/31 03:24:40;;;;;;;20.35;8.43;;;6.80;90.30;;;;;;5031300;28;20589;-74
2022/03/31 03:27:06;;;;;;;21.23;8.43;;;6.80;90.60;;;;;;5031072;28;20075;-76
2022/03/31 03:29:31;;;;;;;20.00;8.45;;;6.80;90.60;;;;;;5030935;28;20042;-75
2022/03/31 03:31:57;;;;;;;17.17;8.32;;;7.00;90.70;;;;;;5013593;28;20116;-74
2022/03/31 03:34:22;;;;;;;20.30;8.30;;;6.80;90.80;;;;;;5014093;28;20064;-75
2022/03/31 03:36:48;;;;;;;18.83;8.95;;;6.90;90.90;;;;;;5031274;28;20045;-77
2022/03/31 03:39:14;;;;;;;20.30;8.93;;;6.80;90.90;;;;;;5031231;28;20115;-76
2022/03/31 03:41:40;;;;;;;16.02;8.20;;;6.90;90.90;;;;;;5013553;28;20402;-74
2022/03/31 03:44:06;;;;;;;16.40;8.00;;;6.80;91.10;;;;;;5030999;28;20025;-74
2022/03/31 03:46:32;;;;;;;17.83;8.25;;;6.80;91.30;;;;;;5031588;28;20025;-74
2022/03/31 03:48:58;;;;;;;20.67;8.88;;;6.80;91.40;;;;;;5013417;28;20070;-73
2022/03/31 03:51:24;;;;;;;19.67;8.40;;;6.70;91.50;;;;;;5030617;28;20112;-74
2022/03/31 03:53:50;;;;;;;20.75;8.48;;;6.80;91.60;;;;;;5030860;28;20521;-74
2022/03/31 03:56:17;;;;;;;16.75;8.10;;;6.70;91.40;;;;;;5031078;28;20061;-74
2022/03/31 03:58:43;;;;;;;20.98;8.35;;;6.70;91.70;;;;;;5030674;28;20205;-75
2022/03/31 04:01:09;;;;;;;24.52;9.48;;;6.80;91.70;;;;;;5031259;28;20420;-75
2022/03/31 04:03:35;;;;;;;23.45;9.10;;;6.80;91.80;;;;;;5013005;28;20136;-75
2022/03/31 04:06:01;;;;;;;18.45;8.35;;;6.90;91.50;;;;;;5030603;28;20025;-75
2022/03/31 04:08:26;;;;;;;17.30;8.30;;;7.00;91.50;;;;;;5030722;28;20485;-76
2022/03/31 04:10:52;;;;;;;18.15;7.72;;;7.00;91.50;;;;;;5013020;28;20627;-75
2022/03/31 04:13:19;;;;;;;17.25;8.10;;;7.10;91.50;;;;;;5031150;28;20060;-76
2022/03/31 04:15:45;;;;;;;23.10;8.52;;;7.00;91.50;;;;;;5013238;28;20494;-76
2022/03/31 04:18:10;;;;;;;17.33;8.52;;;7.00;91.70;;;;;;5030906;28;20041;-75
2022/03/31 04:20:36;;;;;;;19.92;9.82;;;6.90;91.80;;;;;;5013366;28;20029;-76
2022/03/31 04:23:02;;;;;;;30.05;10.00;;;7.00;92.00;;;;;;5012880;28;20326;-76
2022/03/31 04:25:28;;;;;;;19.42;10.45;;;6.90;92.30;;;;;;5031027;28;20420;-74
2022/03/31 04:27:54;;;;;;;29.38;10.50;;;6.90;92.60;;;;;;5030401;28;20033;-74
2022/03/31 04:30:21;;;;;;;24.33;11.88;;;6.80;93.00;;;;;;5030334;28;20029;-74
2022/03/31 04:32:47;;;;;;;21.70;11.18;;;6.80;93.10;;;;;;5012811;28;20033;-75
2022/03/31 04:35:14;;;;;;;25.83;11.85;;;6.80;93.10;;;;;;5030542;28;20040;-75
2022/03/31 04:37:40;;;;;;;35.80;14.30;;;6.90;93.30;;;;;;5013556;28;20451;-76
2022/03/31 04:40:08;;;;;;;31.63;13.35;;;6.90;93.40;;;;;;5035131;28;20057;-75
2022/03/31 04:42:35;;;;;;;29.75;12.77;;;6.90;93.30;;;;;;5034194;28;20038;-74
2022/03/31 04:45:04;;;;;;;31.80;14.00;;;7.00;93.30;;;;;;5016776;28;20072;-75
2022/03/31 04:47:30;;;;;;;29.45;14.77;;;7.00;93.30;;;;;;5034324;28;20048;-75
2022/03/31 04:49:57;;;;;;;28.10;12.68;;;7.10;93.20;;;;;;5016592;28;20447;-74
2022/03/31 04:52:22;;;;;;;29.42;13.27;;;7.00;93.30;;;;;;5034721;28;20493;-76
2022/03/31 04:54:48;;;;;;;27.33;13.57;;;7.10;93.30;;;;;;5016742;28;20124;-75
2022/03/31 04:57:16;;;;;;;30.65;15.60;;;7.20;93.50;;;;;;5034218;28;20033;-76
2022/03/31 04:59:42;;;;;;;29.30;16.10;;;7.20;93.30;;;;;;5034166;28;20033;-74
2022/03/31 05:02:08;;;;;;;33.03;15.25;;;7.20;93.40;;;;;;5033960;28;20041;-76
2022/03/31 05:04:33;;;;;;;30.73;14.52;;;7.10;93.30;;;;;;5034541;28;20064;-76
2022/03/31 05:06:59;;;;;;;33.33;15.50;;;7.10;93.40;;;;;;5034278;28;20041;-77
2022/03/31 05:09:25;;;;;;;29.27;15.43;;;7.10;93.40;;;;;;5033926;28;20040;-75
2022/03/31 05:11:50;;;;;;;35.25;19.13;;;7.00;93.50;;;;;;5033969;28;20026;-75
2022/03/31 05:14:16;;;;;;;37.97;18.33;;;7.00;93.60;;;;;;5033897;28;20026;-76
2022/03/31 05:16:41;;;;;;;38.83;17.80;;;7.00;93.50;;;;;;5033912;28;20108;-75
2022/03/31 05:19:07;;;;;;;42.75;17.55;;;7.00;93.50;;;;;;5034106;28;20359;-74
2022/03/31 05:21:33;;;;;;;37.25;18.77;;;7.10;93.40;;;;;;5033786;28;20038;-74
2022/03/31 05:23:59;;;;;;;35.58;17.35;;;7.00;93.50;;;;;;5008901;28;20092;-77
2022/03/31 05:26:24;;;;;;;33.22;16.60;;;7.10;93.30;;;;;;4995483;28;20105;-77
2022/03/31 05:28:50;;;;;;;27.63;15.05;;;7.20;93.20;;;;;;4994761;28;20041;-77
2022/03/31 05:31:15;;;;;;;26.63;14.38;;;7.10;93.10;;;;;;4996237;28;20061;-78
2022/03/31 05:33:41;;;;;;;28.15;14.20;;;7.20;93.10;;;;;;4994284;28;20456;-77
2022/03/31 05:36:07;;;;;;;29.58;13.43;;;7.20;93.00;;;;;;4978124;28;20472;-78
2022/03/31 05:38:32;;;;;;;27.00;13.50;;;7.20;92.90;;;;;;4994528;28;20441;-76
2022/03/31 05:40:58;;;;;;;33.00;14.23;;;7.20;92.80;;;;;;4994544;28;20054;-74
2022/03/31 05:43:23;;;;;;;26.85;12.82;;;7.10;92.70;;;;;;4994632;28;20062;-74
2022/03/31 05:45:50;;;;;;;32.22;15.20;;;7.20;92.60;;;;;;4994854;28;20038;-75
2022/03/31 05:48:15;;;;;;;35.67;16.30;;;7.20;92.60;;;;;;4994074;28;20125;-74
2022/03/31 05:50:41;;;;;;;30.10;15.73;;;7.30;92.50;;;;;;5003456;28;20492;-75
2022/03/31 05:53:07;;;;;;;31.83;15.48;;;7.40;92.70;;;;;;4996266;28;20030;-78
2022/03/31 05:55:33;;;;;;;40.45;17.58;;;7.20;92.20;;;;;;5013981;28;20033;-75
2022/03/31 05:57:58;;;;;;;34.22;17.85;;;7.20;92.20;;;;;;5013414;28;20107;-75
2022/03/31 06:00:24;;;;;;;34.50;18.05;;;7.10;92.30;;;;;;5013573;28;20140;-75
2022/03/31 06:02:52;;;;;;;38.20;17.70;;;7.10;92.30;;;;;;5013106;28;20038;-75
2022/03/31 06:05:19;;;;;;;31.88;17.45;;;7.10;92.40;;;;;;4995691;28;20041;-75
2022/03/31 06:07:45;;;;;;;39.72;17.42;;;7.20;92.50;;;;;;5013174;28;20029;-74
2022/03/31 06:10:11;;;;;;;39.75;16.88;;;7.40;92.20;;;;;;5012331;28;20033;-74
2022/03/31 06:12:37;;;;;;;36.13;16.35;;;7.20;92.60;;;;;;4995563;28;20036;-73
2022/03/31 06:15:07;;;;;;;38.95;16.38;;;7.30;92.20;;;;;;5013028;28;20479;-73
2022/03/31 06:17:34;;;;;;;39.80;18.80;;;7.30;92.10;;;;;;5012871;28;20049;-74
2022/03/31 06:19:59;;;;;;;34.13;17.20;;;7.40;92.10;;;;;;5012743;28;20503;-76
2022/03/31 06:22:25;;;;;;;31.90;15.38;;;7.30;91.90;;;;;;5013152;28;20022;-74
2022/03/31 06:24:51;;;;;;;40.25;17.25;;;7.30;92.00;;;;;;5012609;28;20041;-73
2022/03/31 06:27:17;;;;;;;31.52;16.05;;;7.30;92.10;;;;;;5012618;28;20022;-73
2022/03/31 06:29:46;;;;;;;31.48;16.92;;;7.40;92.00;;;;;;5012384;28;20483;-72
2022/03/31 06:32:13;;;;;;;34.47;17.08;;;7.30;91.80;;;;;;5012378;28;20061;-73
2022/03/31 06:34:39;;;;;;;38.33;18.45;;;7.40;91.80;;;;;;5012067;28;20061;-72
2022/03/31 06:37:05;;;;;;;32.33;16.73;;;7.40;91.90;;;;;;5012732;28;20022;-72
2022/03/31 06:39:30;;;;;;;43.80;19.33;;;7.30;91.80;;;;;;4995034;28;20475;-71
2022/03/31 06:41:57;;;;;;;37.58;18.70;;;7.30;91.90;;;;;;5012001;28;20030;-72
2022/03/31 06:44:22;;;;;;;33.65;18.05;;;7.20;91.80;;;;;;5012390;28;20044;-71
2022/03/31 06:46:48;;;;;;;42.65;20.55;;;7.30;91.80;;;;;;5012424;28;20485;-71
2022/03/31 06:49:13;;;;;;;38.33;19.23;;;7.30;91.60;;;;;;4995198;28;20030;-73
2022/03/31 06:51:39;;;;;;;48.58;23.17;;;7.40;91.50;;;;;;5012061;28;20472;-72
2022/03/31 06:54:05;;;;;;;41.15;20.88;;;7.10;91.20;;;;;;5011149;28;20038;-77
2022/03/31 06:56:31;;;;;;;41.40;20.13;;;7.20;91.40;;;;;;5012296;28;20034;-73
2022/03/31 06:58:59;;;;;;;45.22;19.98;;;7.10;91.10;;;;;;5011881;28;20022;-72
2022/03/31 07:01:25;;;;;;;33.42;17.83;;;7.10;91.10;;;;;;5011920;28;20084;-70
2022/03/31 07:03:51;;;;;;;40.50;19.13;;;7.00;91.20;;;;;;5011717;28;20046;-71
2022/03/31 07:06:18;;;;;;;35.45;17.65;;;7.10;91.20;;;;;;5011884;28;20482;-72
2022/03/31 07:08:43;;;;;;;31.88;16.63;;;7.20;91.20;;;;;;4994393;28;20062;-72
2022/03/31 07:11:10;;;;;;;37.08;15.05;;;7.30;91.20;;;;;;5011857;28;20116;-71
2022/03/31 07:13:36;;;;;;;27.95;14.27;;;7.20;91.20;;;;;;5011539;28;20040;-73
2022/03/31 07:16:06;;;;;;;24.85;12.05;;;7.30;91.20;;;;;;5012301;28;20368;-73
2022/03/31 07:18:32;;;;;;;22.17;10.82;;;7.20;91.00;;;;;;4994427;28;20124;-72
2022/03/31 07:20:57;;;;;;;24.17;9.55;;;7.30;90.90;;;;;;4994133;28;20492;-72
2022/03/31 07:23:25;;;;;;;21.52;9.52;;;7.30;90.90;;;;;;5011407;28;20117;-72
2022/03/31 07:25:51;;;;;;;;;;;7.30;90.90;;;;;;4994710;28;20410;-72
2022/03/31 07:28:18;;;;;;;26.57;10.83;;;7.40;90.80;;;;;;5012085;28;19921;-73
2022/03/31 07:30:44;;;;;;;23.15;11.20;;;7.40;91.00;;;;;;4994029;28;20056;-72
2022/03/31 07:33:09;;;;;;;27.63;11.20;;;7.30;91.10;;;;;;4993823;28;20038;-71
2022/03/31 07:35:39;;;;;;;18.35;9.25;;;7.30;91.20;;;;;;5010990;28;20129;-74
2022/03/31 07:38:08;;;;;;;19.02;8.00;;;7.30;91.10;;;;;;5009853;28;20033;-74
2022/03/31 07:40:38;;;;;;;13.88;6.72;;;7.40;90.90;;;;;;5011408;28;20034;-72
2022/03/31 07:43:04;;;;;;;12.60;6.85;;;7.30;90.40;;;;;;5011261;28;20097;-76
2022/03/31 07:45:34;;;;;;;16.08;5.65;;;7.30;90.10;;;;;;5010882;28;20030;-73
2022/03/31 07:48:01;;;;;;;13.48;5.50;;;7.30;90.00;;;;;;5010977;28;20026;-72
2022/03/31 07:50:27;;;;;;;13.65;5.35;;;7.40;89.60;;;;;;5010988;28;20452;-74
2022/03/31 07:52:53;;;;;;;15.88;5.13;;;7.50;89.20;;;;;;5010921;28;20069;-74
2022/03/31 07:55:19;;;;;;;13.65;5.38;;;7.50;88.40;;;;;;5010502;28;20459;-76
2022/03/31 07:57:48;;;;;;;13.85;5.55;;;7.60;88.00;;;;;;5009929;28;20067;-73
2022/03/31 08:00:15;;;;;;;14.98;6.22;;;7.60;87.00;;;;;;5010638;28;20041;-73
2022/03/31 08:02:43;;;;;;;12.07;6.30;;;7.60;86.20;;;;;;5010424;28;20416;-73
2022/03/31 08:05:09;;;;;;;19.13;6.10;;;7.50;85.40;;;;;;5010593;28;20447;-73
2022/03/31 08:07:36;;;;;;;17.90;6.82;;;7.50;85.30;;;;;;5010610;28;20033;-74
2022/03/31 08:10:03;;;;;;;12.88;6.97;;;7.60;84.80;;;;;;5011005;28;20336;-74
2022/03/31 08:12:29;;;;;;;18.30;7.05;;;7.70;83.90;;;;;;5009622;28;20034;-72
2022/03/31 08:14:54;;;;;;;23.55;6.88;;;7.70;84.00;;;;;;5010465;28;20514;-73
2022/03/31 08:17:20;;;;;;;19.05;7.32;;;7.90;83.60;;;;;;5010650;28;20440;-72
2022/03/31 08:19:45;;;;;;;15.82;7.10;;;7.80;82.70;;;;;;5010357;28;20026;-72
2022/03/31 08:22:11;;;;;;;18.38;7.15;;;7.80;82.40;;;;;;5010968;28;20029;-74
2022/03/31 08:24:37;;;;;;;16.70;7.50;;;7.90;82.40;;;;;;5010509;28;20033;-72
2022/03/31 08:27:04;;;;;;;17.75;7.78;;;7.80;81.60;;;;;;5010439;28;20076;-72
2022/03/31 08:29:30;;;;;;;17.73;7.93;;;7.90;81.70;;;;;;5010629;28;20482;-73
2022/03/31 08:31:56;;;;;;;19.75;7.95;;;8.00;81.40;;;;;;5010728;28;20026;-71
2022/03/31 08:34:22;;;;;;;21.63;7.28;;;8.10;80.70;;;;;;5010955;28;20060;-72
2022/03/31 08:36:47;;;;;;;17.90;7.97;;;8.10;80.40;;;;;;5010813;28;20030;-71
2022/03/31 08:39:13;;;;;;;17.70;7.70;;;8.00;80.00;;;;;;5010281;28;20422;-72
2022/03/31 08:41:39;;;;;;;19.40;7.75;;;8.00;80.10;;;;;;5010457;28;20038;-75
2022/03/31 08:44:05;;;;;;;21.40;8.02;;;8.00;79.70;;;;;;5010245;28;20029;-71
2022/03/31 08:46:34;;;;;;;19.25;7.72;;;8.20;80.10;;;;;;5009646;28;20083;-71
2022/03/31 08:49:01;;;;;;;17.55;7.65;;;8.20;79.20;;;;;;5010411;28;20074;-71
2022/03/31 08:51:27;;;;;;;14.50;7.95;;;8.10;78.90;;;;;;5011229;28;20034;-73
2022/03/31 08:53:53;;;;;;;21.95;8.70;;;7.90;79.00;;;;;;5012837;28;20119;-74
2022/03/31 08:56:19;;;;;;;27.08;11.35;;;7.90;79.30;;;;;;5010363;28;20154;-75
2022/03/31 08:58:45;;;;;;;21.25;10.27;;;7.90;79.50;;;;;;5010189;28;20357;-75
2022/03/31 09:01:15;;;;;;;21.83;9.00;;;7.90;79.40;;;;;;5010857;28;20040;-76
2022/03/31 09:03:42;;;;;;;22.55;9.25;;;8.00;79.60;;;;;;5010183;28;20054;-72
2022/03/31 09:06:08;;;;;;;17.92;9.93;;;8.10;79.20;;;;;;5010363;28;20022;-74
2022/03/31 09:08:34;;;;;;;21.55;9.88;;;8.10;79.10;;;;;;5010426;28;20049;-74
2022/03/31 09:11:01;;;;;;;23.90;10.13;;;8.10;78.70;;;;;;5010189;28;20523;-73
2022/03/31 09:13:31;;;;;;;21.90;10.05;;;8.00;79.00;;;;;;5010458;28;20447;-72
2022/03/31 09:16:06;;;;;;;18.75;11.07;;;7.90;79.40;;;;;;5010128;28;20128;-73
2022/03/31 09:18:33;;;;;;;18.95;12.27;;;7.90;79.70;;;;;;5010049;28;20063;-70
2022/03/31 09:21:01;;;;;;;25.55;12.20;;;7.90;79.80;;;;;;4992838;28;20125;-72
2022/03/31 09:23:28;;;;;;;21.77;11.93;;;7.90;79.70;;;;;;5009393;28;20092;-72
2022/03/31 09:26:02;;;;;;;23.05;12.25;;;7.90;79.70;;;;;;5013473;28;20125;-73
2022/03/31 09:28:27;;;;;;;21.13;11.10;;;8.00;79.80;;;;;;5013962;28;20021;-73
2022/03/31 09:30:56;;;;;;;21.13;11.82;;;8.00;79.80;;;;;;5013583;28;20088;-72
2022/03/31 09:33:27;;;;;;;29.60;11.18;;;8.10;79.80;;;;;;4995999;28;20030;-79
2022/03/31 09:36:17;;;;;;;28.80;12.85;;;8.00;79.80;;;;;;5013157;28;20033;-75
2022/03/31 09:39:17;;;;;;;34.53;14.50;;;8.10;79.90;;;;;;5012801;28;20052;-72
2022/03/31 09:41:47;;;;;;;19.02;10.90;;;8.10;79.80;;;;;;4995627;28;20102;-73
2022/03/31 09:44:14;;;;;;;21.48;11.43;;;8.10;79.90;;;;;;5013308;28;20084;-73
2022/03/31 09:46:40;;;;;;;29.13;11.35;;;8.10;79.70;;;;;;5013014;28;20025;-73
2022/03/31 09:49:26;;;;;;;19.70;11.93;;;8.20;79.90;;;;;;5013451;28;20057;-73
2022/03/31 09:52:03;;;;;;;19.60;10.88;;;8.30;79.80;;;;;;5013122;28;20035;-72
2022/03/31 09:54:32;;;;;;;22.75;9.40;;;8.40;79.50;;;;;;5013028;28;20042;-72
2022/03/31 09:56:59;;;;;;;16.10;9.23;;;8.30;78.80;;;;;;5013064;28;20026;-73
2022/03/31 09:59:48;;;;;;;22.02;9.52;;;8.20;78.70;;;;;;5012910;28;20069;-74
2022/03/31 10:02:15;;;;;;;14.43;9.05;;;8.10;78.90;;;;;;5012847;28;20535;-71
2022/03/31 10:04:44;;;;;;;18.95;9.70;;;8.00;78.90;;;;;;5012907;28;20030;-74
2022/03/31 10:07:10;;;;;;;18.55;8.73;;;8.00;79.10;;;;;;5012227;28;20121;-73
2022/03/31 10:09:39;;;;;;;18.10;10.20;;;8.00;78.80;;;;;;5012790;28;20056;-74
2022/03/31 10:12:13;;;;;;;21.55;10.35;;;8.00;79.10;;;;;;4995475;28;20026;-73
2022/03/31 10:14:40;;;;;;;13.02;7.10;;;8.10;79.00;;;;;;5012901;28;20207;-74
2022/03/31 10:17:11;;;;;;;23.20;8.75;;;8.30;78.90;;;;;;5012752;28;20026;-74
2022/03/31 10:19:44;;;;;;;18.05;8.02;;;8.30;78.10;;;;;;4995373;28;20357;-75
2022/03/31 10:25:08;;;;;;;17.85;6.90;;;8.60;77.40;;;;;;5012740;28;20072;-71
2022/03/31 10:27:36;;;;;;;17.75;5.93;;;8.80;76.60;;;;;;5012516;28;20042;-74
2022/03/31 10:30:11;;;;;;;14.25;6.78;;;8.90;75.70;;;;;;5012282;28;20045;-74
2022/03/31 10:32:37;;;;;;;15.68;6.10;;;9.00;75.40;;;;;;5012434;28;20459;-75
2022/03/31 10:35:03;;;;;;;10.05;5.38;;;9.00;74.20;;;;;;5011939;28;20030;-75
2022/03/31 10:37:37;;;;;;;11.15;5.13;;;8.90;74.20;;;;;;4995221;28;20136;-73
2022/03/31 10:40:06;;;;;;;12.27;5.78;;;9.10;73.90;;;;;;4993225;28;20049;-73
2022/03/31 10:42:32;;;;;;;13.73;5.35;;;9.40;73.50;;;;;;5012286;28;20045;-73
2022/03/31 10:45:12;;;;;;;10.95;5.03;;;9.70;72.70;;;;;;5012945;28;20045;-73
2022/03/31 10:47:40;;;;;;;8.68;5.10;;;9.80;71.00;;;;;;5012400;28;20049;-73
2022/03/31 10:50:08;;;;;;;12.05;5.38;;;9.90;70.70;;;;;;5012396;28;20033;-73
2022/03/31 10:52:34;;;;;;;13.68;5.57;;;9.80;70.30;;;;;;5012927;28;20029;-72
2022/03/31 10:55:11;;;;;;;17.65;5.47;;;9.90;70.30;;;;;;4994506;28;20107;-72
2022/03/31 10:57:44;;;;;;;7.20;4.55;;;10.00;68.90;;;;;;5012171;28;20045;-70
2022/03/31 11:00:14;;;;;;;10.55;5.18;;;10.10;68.40;;;;;;5012288;28;20076;-72
2022/03/31 11:02:46;;;;;;;9.45;4.50;;;10.20;68.00;;;;;;5011919;28;20558;-73
2022/03/31 11:05:12;;;;;;;13.40;5.03;;;10.50;67.80;;;;;;5011824;28;20044;-73
2022/03/31 11:07:38;;;;;;;13.52;4.78;;;10.60;67.30;;;;;;4994719;28;20022;-72
2022/03/31 11:10:12;;;;;;;13.98;4.53;;;10.70;65.90;;;;;;5012549;28;20029;-73
2022/03/31 11:12:39;;;;;;;15.70;5.40;;;10.50;65.00;;;;;;5012141;28;20030;-72
2022/03/31 11:15:09;;;;;;;8.45;4.25;;;10.40;65.10;;;;;;5011939;28;20495;-73
2022/03/31 11:17:37;;;;;;;10.18;4.13;;;10.50;65.10;;;;;;5011696;28;20053;-72
2022/03/31 11:20:16;;;;;;;18.08;4.55;;;10.30;64.40;;;;;;5011662;28;20030;-72
2022/03/31 11:22:50;;;;;;;11.23;4.72;;;10.50;64.30;;;;;;5011568;28;20046;-72
2022/03/31 11:25:17;;;;;;;7.55;3.90;;;10.60;63.60;;;;;;5011852;28;20439;-72
2022/03/31 11:27:43;;;;;;;21.20;8.23;;;10.60;63.50;;;;;;5011211;28;20034;-73
2022/03/31 11:30:16;;;;;;;10.05;4.45;;;10.60;62.50;;;;;;5011080;28;20482;-73
2022/03/31 11:32:43;;;;;;;6.85;4.05;;;10.70;62.00;;;;;;5011534;28;20042;-71
2022/03/31 11:35:15;;;;;;;9.57;4.10;;;10.60;61.60;;;;;;4993804;28;20025;-71
2022/03/31 11:37:52;;;;;;;7.78;4.07;;;10.60;62.00;;;;;;5011371;28;20018;-72
2022/03/31 11:40:26;;;;;;;9.38;4.05;;;10.70;61.30;;;;;;5011800;28;20026;-72
2022/03/31 11:42:54;;;;;;;13.43;4.40;;;10.70;61.10;;;;;;5011212;28;20121;-73
2022/03/31 11:45:29;;;;;;;10.30;4.25;;;10.70;60.70;;;;;;5011603;28;20037;-70
2022/03/31 11:47:57;;;;;;;7.63;3.30;;;10.70;60.30;;;;;;5010927;28;20034;-73
2022/03/31 11:50:23;;;;;;;9.25;4.03;;;10.60;60.60;;;;;;5010881;28;20069;-71
2022/03/31 11:52:49;;;;;;;13.57;4.68;;;10.40;59.70;;;;;;5010742;28;20077;-72
2022/03/31 11:55:14;;;;;;;6.85;4.05;;;10.40;59.60;;;;;;5011464;28;20363;-72
2022/03/31 11:57:52;;;;;;;15.32;3.75;;;10.40;60.00;;;;;;5011067;28;20364;-73
2022/03/31 12:00:18;;;;;;;8.90;4.35;;;10.50;59.60;;;;;;5010862;28;20029;-71
2022/03/31 12:03:06;;;;;;;7.60;3.95;;;10.40;59.00;;;;;;5010486;28;20070;-72
2022/03/31 12:05:32;;;;;;;8.25;4.20;;;10.30;58.90;;;;;;4993292;28;20381;-71
2022/03/31 12:08:01;;;;;;;12.27;3.97;;;10.50;59.60;;;;;;5010745;28;20029;-70
2022/03/31 12:10:29;;;;;;;11.65;4.25;;;10.40;58.30;;;;;;4993759;28;20030;-71
2022/03/31 12:12:56;;;;;;;7.47;3.85;;;10.40;58.40;;;;;;5010681;28;20498;-74
2022/03/31 12:15:30;;;;;;;12.55;4.13;;;10.50;58.40;;;;;;5010749;28;20042;-72
2022/03/31 12:18:05;;;;;;;6.90;3.72;;;10.30;57.90;;;;;;4994289;28;20065;-80
2022/03/31 12:20:31;;;;;;;9.55;3.92;;;10.30;57.90;;;;;;5011077;28;20098;-69
2022/03/31 12:22:57;;;;;;;6.75;3.70;;;10.20;57.90;;;;;;4993244;28;20041;-73
2022/03/31 12:25:36;;;;;;;7.72;3.78;;;10.20;57.70;;;;;;5010908;28;20025;-72
2022/03/31 12:28:09;;;;;;;9.98;3.80;;;10.10;57.40;;;;;;5010599;28;20761;-71
2022/03/31 12:30:54;;;;;;;11.02;3.58;;;10.10;57.60;;;;;;5011158;28;20069;-73
2022/03/31 12:33:30;;;;;;;8.13;3.40;;;9.90;58.80;;;;;;5010509;28;20026;-73
2022/03/31 12:36:02;;;;;;;8.95;3.33;;;9.80;58.50;;;;;;4993132;28;20416;-72
2022/03/31 12:38:44;;;;;;;8.95;3.67;;;9.80;58.40;;;;;;4993056;28;20030;-72
2022/03/31 12:41:20;;;;;;;7.60;3.65;;;9.90;58.80;;;;;;5010557;28;20167;-71
2022/03/31 12:44:04;;;;;;;10.10;3.80;;;9.80;58.20;;;;;;4992871;28;20030;-70
2022/03/31 12:46:50;;;;;;;8.20;3.63;;;9.70;58.10;;;;;;5010886;28;20041;-72
2022/03/31 12:49:17;;;;;;;7.70;3.25;;;9.80;58.40;;;;;;4996519;28;20474;-72
2022/03/31 12:51:47;;;;;;;10.85;3.13;;;9.80;57.90;;;;;;5010332;28;20030;-70
2022/03/31 12:54:27;;;;;;;6.90;3.40;;;9.80;57.70;;;;;;5010383;28;20026;-77